Schneifelwetter: Wetterstation Hallschlag, 537 m . NN
Wetterdaten: Donnerstag, 04.08.2011
Datum Zeit Temp. A. Feuchte A. Luftdruck Regen Wind Richtung Richtung Sonnenschein Helligkeit T Regen Taupunkt Windchill
04.08.2011 00:09 16,0 C 91 % 1016 hPa 0,0 l/m 0,6 km/h (0 Bft) W 260 0 min 0 lux 0 min 14,5 C 16,0 C
04.08.2011 00:24 15,8 C 91 % 1016 hPa 0,0 l/m 1,2 km/h (1 Bft) W 260 0 min 0 lux 0 min 14,3 C 15,8 C
04.08.2011 00:39 15,3 C 91 % 1016 hPa 0,0 l/m 11,1 km/h (2 Bft) W 260 0 min 0 lux 0 min 13,8 C 13,0 C
04.08.2011 00:54 14,9 C 91 % 1016 hPa 0,0 l/m 6,7 km/h (2 Bft) W 260 0 min 0 lux 0 min 13,4 C 14,7 C
04.08.2011 01:14 14,3 C 91 % 1016 hPa 0,0 l/m 7,0 km/h (2 Bft) W 260 0 min 0 lux 0 min 12,8 C 13,9 C
04.08.2011 01:29 14,0 C 92 % 1016 hPa 0,0 l/m 9,4 km/h (2 Bft) W 260 0 min 0 lux 0 min 12,7 C 12,3 C
04.08.2011 01:44 13,7 C 92 % 1016 hPa 0,0 l/m 6,5 km/h (2 Bft) W 265 0 min 0 lux 0 min 12,4 C 13,7 C
04.08.2011 01:59 13,5 C 92 % 1016 hPa 0,0 l/m 8,0 km/h (2 Bft) W 265 0 min 0 lux 0 min 12,2 C 12,5 C
04.08.2011 02:14 13,5 C 93 % 1016 hPa 0,0 l/m 7,5 km/h (2 Bft) W 260 0 min 0 lux 0 min 12,4 C 12,8 C
04.08.2011 02:29 13,4 C 93 % 1015 hPa 0,0 l/m 0,4 km/h (0 Bft) W 265 0 min 0 lux 0 min 12,3 C 13,4 C
04.08.2011 02:44 13,3 C 93 % 1015 hPa 0,0 l/m 0,9 km/h (0 Bft) W 265 0 min 0 lux 0 min 12,2 C 13,3 C
04.08.2011 02:59 13,5 C 94 % 1016 hPa 0,0 l/m 9,9 km/h (2 Bft) W-SW22.5 245 0 min 0 lux 0 min 12,6 C 11,5 C
04.08.2011 03:15 13,5 C 94 % 1015 hPa 0,0 l/m 0,8 km/h (0 Bft) W 265 0 min 0 lux 0 min 12,6 C 13,5 C
04.08.2011 03:30 13,3 C 94 % 1016 hPa 0,0 l/m 1,0 km/h (0 Bft) W-SW 255 0 min 0 lux 0 min 12,4 C 13,3 C
04.08.2011 03:45 13,1 C 94 % 1016 hPa 0,0 l/m 7,9 km/h (2 Bft) W-SW 255 0 min 0 lux 0 min 12,2 C 12,2 C
04.08.2011 04:00 13,2 C 95 % 1016 hPa 0,0 l/m 7,6 km/h (2 Bft) W-SW 255 0 min 0 lux 0 min 12,4 C 12,5 C
04.08.2011 04:15 13,4 C 95 % 1016 hPa 0,0 l/m 0,0 km/h (0 Bft) W-SW 255 0 min 0 lux 0 min 12,6 C 13,4 C
04.08.2011 04:30 13,6 C 95 % 1016 hPa 0,0 l/m 6,7 km/h (2 Bft) W-SW 240 0 min 0 lux 0 min 12,8 C 13,4 C
04.08.2011 04:45 13,6 C 95 % 1016 hPa 0,0 l/m 0,8 km/h (0 Bft) W-SW 240 0 min 0 lux 0 min 12,8 C 13,6 C
04.08.2011 05:00 13,7 C 96 % 1015 hPa 0,0 l/m 1,1 km/h (1 Bft) W-SW 240 0 min 0 lux 0 min 13,1 C 13,7 C
04.08.2011 05:15 13,6 C 96 % 1015 hPa 0,0 l/m 0,1 km/h (0 Bft) W-SW 240 0 min 0 lux 0 min 13,0 C 13,6 C
04.08.2011 05:30 13,6 C 96 % 1016 hPa 0,0 l/m 11,8 km/h (2 Bft) W-SW 240 0 min 0 lux 0 min 13,0 C 10,7 C
04.08.2011 05:45 13,4 C 96 % 1016 hPa 0,0 l/m 12,0 km/h (2 Bft) W-SW 240 0 min 0 lux 0 min 12,8 C 10,4 C
04.08.2011 06:00 13,2 C 96 % 1016 hPa 0,0 l/m 6,5 km/h (2 Bft) W-SW 240 0 min 71 lux 0 min 12,6 C 13,2 C
04.08.2011 06:15 13,2 C 96 % 1016 hPa 0,0 l/m 0,0 km/h (0 Bft) W-SW 240 0 min 300 lux 0 min 12,6 C 13,2 C
04.08.2011 06:30 13,2 C 96 % 1016 hPa 0,0 l/m 0,0 km/h (0 Bft) W-SW 240 0 min 771 lux 0 min 12,6 C 13,2 C
04.08.2011 06:45 13,3 C 96 % 1016 hPa 0,0 l/m 0,0 km/h (0 Bft) W-SW 240 0 min 1,46 klux 0 min 12,7 C 13,3 C
04.08.2011 07:00 13,5 C 96 % 1016 hPa 0,0 l/m 8,5 km/h (2 Bft) W-SW 240 0 min 2,84 klux 0 min 12,9 C 12,2 C
04.08.2011 07:15 13,8 C 96 % 1016 hPa 0,0 l/m 1,2 km/h (1 Bft) W-SW 240 0 min 4,12 klux 0 min 13,2 C 13,8 C
04.08.2011 07:30 14,2 C 96 % 1016 hPa 0,0 l/m 11,3 km/h (2 Bft) SW67.5 225 0 min 6,50 klux 0 min 13,6 C 11,6 C
04.08.2011 07:45 14,4 C 96 % 1016 hPa 0,0 l/m 13,8 km/h (3 Bft) W-SW22.5 255 0 min 7,63 klux 0 min 13,8 C 10,9 C
04.08.2011 08:00 14,6 C 96 % 1016 hPa 0,0 l/m 15,9 km/h (3 Bft) W22.5 260 0 min 10,8 klux 0 min 14,0 C 10,4 C
04.08.2011 08:15 14,9 C 96 % 1016 hPa 0,0 l/m 7,4 km/h (2 Bft) W-SW 250 0 min 11,8 klux 0 min 14,3 C 14,3 C
04.08.2011 08:30 15,2 C 96 % 1016 hPa 0,0 l/m 6,5 km/h (2 Bft) W-SW 245 0 min 13,7 klux 0 min 14,6 C 15,2 C
04.08.2011 08:45 15,7 C 95 % 1016 hPa 0,0 l/m 7,5 km/h (2 Bft) W-SW 245 0 min 17,1 klux 0 min 14,9 C 15,1 C
04.08.2011 09:00 16,5 C 94 % 1016 hPa 0,0 l/m 8,5 km/h (2 Bft) W-SW 245 0 min 44,9 klux 0 min 15,5 C 15,4 C
04.08.2011 09:15 17,5 C 92 % 1016 hPa 0,0 l/m 7,4 km/h (2 Bft) W-SW 245 0 min 46,2 klux 0 min 16,2 C 17,0 C
04.08.2011 09:30 18,4 C 89 % 1016 hPa 0,0 l/m 13,3 km/h (3 Bft) S45 180 0 min 51,3 klux 0 min 16,6 C 15,8 C
04.08.2011 09:45 18,9 C 86 % 1016 hPa 0,0 l/m 22,3 km/h (4 Bft) W-SW22.5 255 15 min 60,8 klux 0 min 16,5 C 14,3 C
04.08.2011 10:00 18,8 C 84 % 1016 hPa 0,0 l/m 20,0 km/h (4 Bft) W45 260 0 min 59,7 klux 0 min 16,0 C 14,7 C
04.08.2011 10:15 18,8 C 84 % 1016 hPa 0,0 l/m 24,3 km/h (4 Bft) SW45 235 15 min 61,1 klux 0 min 16,0 C 13,9 C
04.08.2011 10:30 19,6 C 82 % 1016 hPa 0,0 l/m 20,7 km/h (4 Bft) W22.5 260 0 min 60,5 klux 0 min 16,4 C 15,6 C
04.08.2011 10:44 20,3 C 78 % 1016 hPa 0,0 l/m 24,1 km/h (4 Bft) W22.5 260 14 min 63,4 klux 0 min 16,3 C 15,9 C
04.08.2011 11:00 21,2 C 76 % 1016 hPa 0,0 l/m 21,2 km/h (4 Bft) W-SW45 240 16 min 68,5 klux 0 min 16,8 C 17,6 C
04.08.2011 11:15 22,1 C 72 % 1016 hPa 0,0 l/m 20,2 km/h (4 Bft) W-SW22.5 255 15 min 73,8 klux 0 min 16,8 C 18,9 C
04.08.2011 11:30 22,5 C 71 % 1016 hPa 0,0 l/m 18,6 km/h (3 Bft) W-SW45 240 15 min 73,3 klux 0 min 17,0 C 19,7 C
04.08.2011 11:45 22,8 C 69 % 1016 hPa 0,0 l/m 22,0 km/h (4 Bft) W-SW22.5 245 15 min 77,1 klux 0 min 16,8 C 19,5 C
04.08.2011 12:00 22,6 C 71 % 1016 hPa 0,0 l/m 18,6 km/h (3 Bft) W-SW45 255 15 min 76,9 klux 0 min 17,1 C 19,8 C
04.08.2011 12:15 23,0 C 70 % 1016 hPa 0,0 l/m 21,5 km/h (4 Bft) W22.5 270 15 min 81,4 klux 0 min 17,2 C 19,9 C
04.08.2011 12:30 22,9 C 69 % 1016 hPa 0,0 l/m 22,8 km/h (4 Bft) W45 260 15 min 83,4 klux 0 min 16,9 C 19,6 C
04.08.2011 12:45 22,4 C 71 % 1015 hPa 0,0 l/m 14,0 km/h (3 Bft) W-SW22.5 250 15 min 86,4 klux 0 min 16,9 C 20,4 C
04.08.2011 13:00 23,4 C 69 % 1015 hPa 0,0 l/m 10,7 km/h (2 Bft) W-SW45 240 15 min 92,8 klux 0 min 17,4 C 22,2 C
04.08.2011 13:15 24,1 C 67 % 1015 hPa 0,0 l/m 16,6 km/h (3 Bft) W45 260 15 min 88,5 klux 0 min 17,6 C 22,0 C
04.08.2011 13:30 23,5 C 66 % 1015 hPa 0,0 l/m 17,0 km/h (3 Bft) SW67.5 215 15 min 71,5 klux 0 min 16,8 C 21,2 C
04.08.2011 13:45 23,6 C 67 % 1015 hPa 0,0 l/m 16,9 km/h (3 Bft) S-SW45 200 15 min 83,7 klux 0 min 17,1 C 21,3 C
04.08.2011 14:00 23,4 C 67 % 1015 hPa 0,0 l/m 16,6 km/h (3 Bft) S22.5 180 15 min 82,8 klux 0 min 16,9 C 21,1 C
04.08.2011 14:15 23,6 C 67 % 1015 hPa 0,0 l/m 21,1 km/h (4 Bft) S-SW67.5 200 15 min 66,8 klux 0 min 17,1 C 20,7 C
04.08.2011 14:30 23,4 C 67 % 1014 hPa 0,0 l/m 19,5 km/h (3 Bft) SW67.5 225 0 min 45,0 klux 0 min 16,9 C 20,7 C
04.08.2011 14:45 23,2 C 69 % 1014 hPa 0,0 l/m 17,1 km/h (3 Bft) S45 185 0 min 48,9 klux 0 min 17,2 C 20,8 C
04.08.2011 15:00 23,3 C 67 % 1014 hPa 0,0 l/m 16,0 km/h (3 Bft) S45 170 15 min 90,3 klux 0 min 16,8 C 21,1 C
04.08.2011 15:15 23,3 C 68 % 1014 hPa 0,0 l/m 15,6 km/h (3 Bft) S-SO45 160 15 min 98,0 klux 0 min 17,1 C 21,1 C
04.08.2011 15:30 22,8 C 68 % 1014 hPa 0,0 l/m 18,8 km/h (3 Bft) S45 190 0 min 45,4 klux 0 min 16,6 C 20,0 C
04.08.2011 15:45 23,9 C 64 % 1014 hPa 0,0 l/m 26,3 km/h (4 Bft) S-SW45 210 15 min 94,8 klux 0 min 16,7 C 20,5 C
04.08.2011 16:00 22,9 C 66 % 1014 hPa 0,0 l/m 17,8 km/h (3 Bft) S-SW45 205 0 min 20,0 klux 0 min 16,2 C 20,3 C
04.08.2011 16:15 22,9 C 68 % 1014 hPa 0,0 l/m 20,3 km/h (4 Bft) SW67.5 225 15 min 84,3 klux 0 min 16,7 C 19,9 C
04.08.2011 16:30 22,8 C 68 % 1014 hPa 0,0 l/m 22,8 km/h (4 Bft) S45 170 15 min 83,9 klux 0 min 16,6 C 19,4 C
04.08.2011 16:45 23,2 C 69 % 1014 hPa 0,0 l/m 20,4 km/h (4 Bft) S-SO67.5 160 15 min 69,6 klux 0 min 17,2 C 20,3 C
04.08.2011 17:00 23,5 C 68 % 1013 hPa 0,0 l/m 26,0 km/h (4 Bft) S45 185 15 min 64,2 klux 0 min 17,2 C 20,0 C
04.08.2011 17:15 23,6 C 69 % 1013 hPa 0,0 l/m 18,3 km/h (3 Bft) S67.5 180 15 min 67,3 klux 0 min 17,6 C 21,1 C
04.08.2011 17:30 23,4 C 68 % 1013 hPa 0,0 l/m 17,0 km/h (3 Bft) S-SW45 195 0 min 31,4 klux 0 min 17,1 C 21,0 C
04.08.2011 17:45 23,1 C 70 % 1013 hPa 0,0 l/m 17,0 km/h (3 Bft) S45 190 15 min 62,2 klux 0 min 17,3 C 20,7 C
04.08.2011 18:00 23,4 C 63 % 1013 hPa 0,0 l/m 29,3 km/h (5 Bft) SW45 230 0 min 55,1 klux 0 min 15,9 C 19,6 C
04.08.2011 18:15 22,8 C 62 % 1013 hPa 0,0 l/m 29,8 km/h (5 Bft) SW67.5 225 0 min 45,9 klux 0 min 15,1 C 18,7 C
04.08.2011 18:30 22,4 C 64 % 1013 hPa 0,0 l/m 16,1 km/h (3 Bft) SW45 235 0 min 42,9 klux 0 min 15,2 C 20,0 C
04.08.2011 18:45 22,4 C 63 % 1013 hPa 0,0 l/m 25,2 km/h (4 Bft) W-SW45 255 0 min 28,5 klux 0 min 15,0 C 18,6 C
04.08.2011 19:00 21,8 C 64 % 1013 hPa 0,0 l/m 27,8 km/h (4 Bft) W-SW22.5 255 0 min 12,1 klux 0 min 14,7 C 17,5 C
04.08.2011 19:15 21,4 C 64 % 1013 hPa 0,0 l/m 23,5 km/h (4 Bft) SW45 235 0 min 15,7 klux 0 min 14,3 C 17,5 C
04.08.2011 19:30 21,4 C 64 % 1013 hPa 0,0 l/m 22,6 km/h (4 Bft) W-SW22.5 255 0 min 14,9 klux 0 min 14,3 C 17,6 C
04.08.2011 19:45 20,7 C 64 % 1013 hPa 0,0 l/m 29,4 km/h (5 Bft) W-SW45 255 0 min 8,84 klux 0 min 13,6 C 15,8 C
04.08.2011 20:00 20,3 C 66 % 1013 hPa 0,0 l/m 13,1 km/h (3 Bft) W-SW45 240 0 min 5,62 klux 0 min 13,7 C 18,1 C
04.08.2011 20:15 19,9 C 66 % 1013 hPa 0,0 l/m 11,3 km/h (2 Bft) W22.5 265 0 min 4,04 klux 0 min 13,4 C 18,1 C
04.08.2011 20:30 19,5 C 67 % 1013 hPa 0,0 l/m 18,5 km/h (3 Bft) W-SW45 250 0 min 2,63 klux 0 min 13,2 C 15,9 C
04.08.2011 20:45 19,2 C 67 % 1013 hPa 0,0 l/m 35,4 km/h (5 Bft) W22.5 265 0 min 1,56 klux 0 min 12,9 C 13,0 C
04.08.2011 21:00 18,7 C 70 % 1013 hPa 0,0 l/m 37,9 km/h (5 Bft) W22.5 265 0 min 845 lux 0 min 13,1 C 12,0 C
04.08.2011 21:15 17,7 C 74 % 1013 hPa 0,0 l/m 32,5 km/h (5 Bft) W22.5 260 0 min 238 lux 0 min 13,0 C 11,1 C
04.08.2011 21:30 16,9 C 77 % 1013 hPa 0,0 l/m 17,6 km/h (3 Bft) W-SW22.5 255 0 min 88 lux 0 min 12,8 C 12,8 C
04.08.2011 21:45 16,4 C 80 % 1013 hPa 0,0 l/m 21,6 km/h (4 Bft) SW45 215 0 min 13 lux 0 min 12,9 C 11,2 C
04.08.2011 22:00 16,0 C 82 % 1013 hPa 0,0 l/m 14,5 km/h (3 Bft) W-SW22.5 240 0 min 1 lux 0 min 12,9 C 12,6 C
04.08.2011 22:15 15,8 C 83 % 1013 hPa 0,0 l/m 14,6 km/h (3 Bft) SW45 230 0 min 0 lux 0 min 12,9 C 12,3 C
04.08.2011 22:30 15,6 C 85 % 1013 hPa 0,0 l/m 13,5 km/h (3 Bft) SW22.5 220 0 min 0 lux 0 min 13,1 C 12,4 C
04.08.2011 22:45 15,5 C 86 % 1014 hPa 0,3 l/m 11,3 km/h (2 Bft) SW22.5 220 0 min 0 lux 15 min 13,2 C 13,1 C
04.08.2011 23:00 15,3 C 87 % 1013 hPa 0,0 l/m 17,5 km/h (3 Bft) SW22.5 230 0 min 0 lux 0 min 13,1 C 10,8 C
04.08.2011 23:15 15,2 C 88 % 1013 hPa 0,0 l/m 18,0 km/h (3 Bft) SW45 230 0 min 0 lux 0 min 13,2 C 10,5 C
04.08.2011 23:30 15,0 C 89 % 1013 hPa 0,0 l/m 13,1 km/h (3 Bft) SW45 225 0 min 0 lux 0 min 13,2 C 11,9 C
04.08.2011 23:45 15,0 C 90 % 1013 hPa 0,0 l/m 25,4 km/h (4 Bft) SW45 235 0 min 0 lux 0 min 13,4 C 8,5 C
04.08.2011 23:54 15,0 C 91 % 1013 hPa 0,0 l/m 19,0 km/h (3 Bft) SW45 225 0 min 0 lux 0 min 13,5 C 10,0 C
_ Min-Zeit 03:45 18:15 17:00 - 04:15 - - - - - 03:45 23:45
Minimum _ 13,1 C 62 % 1013 hPa - 0,0 km/h (0 Bft) - - - - - 12,2 C 8,5 C
_ Max-Zeit 13:15 05:00 00:09 22:45 21:00 - - 11:00 15:15 22:45 13:15 13:00
Maximum _ 24,1 C 96 % 1016 hPa 0,3 l/m 37,9 km/h
W (5 Bft)
- - 16 min 98,0 klux 15 min 17,6 C 22,2 C
Durchschnitt _ 18,2 C 81 % 1015 hPa #0,3 l/m 14,7 km/h (3 Bft) W-SW - #6:30 h 29,0 klux #15 min. 14,6 C 15,8 C